Terminal Aerodrome Forecast
Issued by NWS

Home | Current Version | Previous Version | Text Only | Print | Product List | Glossary On
Versions: 1 2 3 4 5 6 7 8 9 10 11 12 13 14
000
FTUS42 TJSJ 241343 AAA
TAFJBQ
TAF AMD
TJBQ 241343Z 2414/2512 07006KT P6SM VCSH FEW030 SCT050 SCT080
     FM241530 VRB10KT P6SM VCTS SCT025CB BKN040
     FM242300 11008KT P6SM VCSH SCT025 BKN060
     FM250300 13004KT P6SM FEW025 BKN070=

USA.gov is the U.S. government's official web portal to all federal, state and local government web resources and services.